Alto, TX

8:46 AM CDT on September 16, 2014 (GMT -0500)
Cherokee County | Change Station
CLOSE
Current Station
Airport
Location: Jacksonville,
Elevation: 676 ft
Nearby Weather Stations

Elev 676 ft 31.87 °N, 95.22 °W | Updated 11 minutes ago

Mostly Cloudy
Mostly Cloudy
73 °F
Feels Like 73 °F
N
4
Wind Variable Wind from NE

Today
High -- | Low -- °F
--% Chance of Precip.
Yesterday
High -- | Low -- °F
Precip. -- in
7:05 AM 7:24 PM
Last Quarter, 45% visible
Pressure 30.14 in
Visibility 5.0 miles
Clouds Scattered Clouds 4300 ft
Mostly Cloudy 6000 ft
Dew Point 72 °F
Humidity 94%
Rainfall 0.00 in
Snow Depth Not available.
UV 1 out of 12
Pollen 10.00 out of 12
Ozone Good
PM2.5 Good
Flu Activity Not available.
METAR KJSO 161335Z AUTO 05003KT 5SM BR SCT043 BKN060 22/22 A3014 RMK AO2 T02300220

More Conditions Fewer Conditions

Pressure 30.14 in
Visibility 5.0 miles
Clouds Scattered Clouds 4300 ft
Mostly Cloudy 6000 ft
Dew Point 72 °F
Humidity 94%
Rainfall 0.00 in
Snow Depth Not available.
UV 1 out of 12
Pollen 10.00 out of 12
Ozone Good
PM2.5 Good
Flu Activity Not available.
METAR KJSO 161335Z AUTO 05003KT 5SM BR SCT043 BKN060 22/22 A3014 RMK AO2 T02300220

More Conditions Fewer Conditions

Nowcast | as of 7:58 am CDT on September 16, 2014

Scattered showers of light to brief moderate rain... will continue to move eastward near 25 mph across the region through the early to mid morning hours.

×

10-Day Weather Forecast

Almanac

Astronomy

Sep. 16, 2014 Rise Set
Actual Time 7:05 AM CDT 7:24 PM CDT
Civil Twilight 6:40 AM CDT 7:49 PM CDT
Nautical Twilight 6:12 AM CDT 8:17 PM CDT
Astronomical Twilight 5:43 AM CDT 8:46 PM CDT
Moon 12:31 AM CDT 2:33 PM CDT
Length of Visible Light 13h 08m
Length of Day
12h 19m
Tomorrow will be 1m 55s shorter.
Last Quarter, 45% of the Moon is Illuminated
Today
Last Quarter
Sep 24
New
Oct 1
First Quarter
Oct 8
Full
Oct 15
Last Quarter

Today's Extremes

State Highs State Lows

Community

WunderPhotos

Upload Photos

1,753,774 photos uploaded!

Nearby

Air Quality

  Air Quality AQ Index Pollutant
Yesterday Good
PM2.5
Yesterday Good
OZONE
Current Good
PM2.5
Current Good
OZONE
Tuesday Good
OZONE
Tuesday Good
PM10
Wednesday Good
OZONE
Wednesday Good
PM10
Thursday Good
OZONE
Thursday Good
PM10

Snow Depth

Station Depth Elevation
No new snow has been reported.

Earthquake Activity

City Distance Mag. Time & Date
No recent earthquake activity has been reported nearby.
Minimum magnitude displayed is 2.5.

Coastal Water Temperatures

Place Temperature
No Stations Reporting

Nearby Weather Stations